sensor_id;sensor_type;location;lat;lon;timestamp;temperature;humidity
318;DHT22;146;53.448;10.228;2023-08-17T00:01:59;19.10;1.00
318;DHT22;146;53.448;10.228;2023-08-17T00:04:26;19.10;1.00
318;DHT22;146;53.448;10.228;2023-08-17T00:06:54;18.90;1.00
318;DHT22;146;53.448;10.228;2023-08-17T00:09:21;18.90;1.00
318;DHT22;146;53.448;10.228;2023-08-17T00:11:50;18.80;1.00
318;DHT22;146;53.448;10.228;2023-08-17T00:14:23;18.80;1.00
318;DHT22;146;53.448;10.228;2023-08-17T00:16:50;18.70;1.00
318;DHT22;146;53.448;10.228;2023-08-17T00:19:20;18.80;1.00
318;DHT22;146;53.448;10.228;2023-08-17T00:21:50;18.80;1.00
318;DHT22;146;53.448;10.228;2023-08-17T00:24:25;18.80;1.00
318;DHT22;146;53.448;10.228;2023-08-17T00:26:52;18.70;1.00
318;DHT22;146;53.448;10.228;2023-08-17T00:29:27;18.70;1.00
318;DHT22;146;53.448;10.228;2023-08-17T00:32:00;18.60;1.00
318;DHT22;146;53.448;10.228;2023-08-17T00:34:27;18.50;1.00
318;DHT22;146;53.448;10.228;2023-08-17T00:36:54;18.50;1.00
318;DHT22;146;53.448;10.228;2023-08-17T00:39:25;18.60;1.00
318;DHT22;146;53.448;10.228;2023-08-17T00:41:55;18.50;1.00
318;DHT22;146;53.448;10.228;2023-08-17T00:44:31;18.60;1.00
318;DHT22;146;53.448;10.228;2023-08-17T00:47:01;18.60;1.00
318;DHT22;146;53.448;10.228;2023-08-17T00:49:28;18.60;1.00
318;DHT22;146;53.448;10.228;2023-08-17T00:52:02;18.60;1.00
318;DHT22;146;53.448;10.228;2023-08-17T00:54:32;18.60;1.00
318;DHT22;146;53.448;10.228;2023-08-17T00:56:59;18.60;1.00
318;DHT22;146;53.448;10.228;2023-08-17T00:59:26;18.50;1.00
318;DHT22;146;53.448;10.228;2023-08-17T01:01:53;18.50;1.00
318;DHT22;146;53.448;10.228;2023-08-17T01:04:23;18.50;1.00
318;DHT22;146;53.448;10.228;2023-08-17T01:06:53;18.60;1.00
318;DHT22;146;53.448;10.228;2023-08-17T01:09:19;18.50;1.00
318;DHT22;146;53.448;10.228;2023-08-17T01:11:53;18.50;1.00
318;DHT22;146;53.448;10.228;2023-08-17T01:14:27;18.60;1.00
318;DHT22;146;53.448;10.228;2023-08-17T01:17:02;18.70;1.00
318;DHT22;146;53.448;10.228;2023-08-17T01:19:33;18.70;1.00
318;DHT22;146;53.448;10.228;2023-08-17T01:22:10;18.80;1.00
318;DHT22;146;53.448;10.228;2023-08-17T01:24:57;18.90;1.00
318;DHT22;146;53.448;10.228;2023-08-17T01:27:46;19.00;1.00
318;DHT22;146;53.448;10.228;2023-08-17T01:30:19;19.00;1.00
318;DHT22;146;53.448;10.228;2023-08-17T01:32:53;19.10;1.00
318;DHT22;146;53.448;10.228;2023-08-17T01:35:28;19.10;1.00
318;DHT22;146;53.448;10.228;2023-08-17T01:37:59;19.00;1.00
318;DHT22;146;53.448;10.228;2023-08-17T01:40:28;19.00;1.00
318;DHT22;146;53.448;10.228;2023-08-17T01:42:59;19.00;1.00
318;DHT22;146;53.448;10.228;2023-08-17T01:45:29;18.90;1.00
318;DHT22;146;53.448;10.228;2023-08-17T01:47:56;18.90;1.00
318;DHT22;146;53.448;10.228;2023-08-17T01:50:26;18.80;1.00
318;DHT22;146;53.448;10.228;2023-08-17T01:52:56;18.70;1.00
318;DHT22;146;53.448;10.228;2023-08-17T01:55:32;18.70;1.00
318;DHT22;146;53.448;10.228;2023-08-17T01:58:00;18.70;1.00
318;DHT22;146;53.448;10.228;2023-08-17T02:00:52;18.70;1.00
318;DHT22;146;53.448;10.228;2023-08-17T02:03:19;18.70;1.00
318;DHT22;146;53.448;10.228;2023-08-17T02:05:46;18.60;1.00
318;DHT22;146;53.448;10.228;2023-08-17T02:08:12;18.60;1.00
318;DHT22;146;53.448;10.228;2023-08-17T02:10:40;18.50;1.00
318;DHT22;146;53.448;10.228;2023-08-17T02:13:19;18.60;1.00
318;DHT22;146;53.448;10.228;2023-08-17T02:15:46;18.70;1.00
318;DHT22;146;53.448;10.228;2023-08-17T02:18:26;18.60;1.00
318;DHT22;146;53.448;10.228;2023-08-17T02:20:56;18.60;1.00
318;DHT22;146;53.448;10.228;2023-08-17T02:23:28;18.60;1.00
318;DHT22;146;53.448;10.228;2023-08-17T02:26:09;18.60;1.00
318;DHT22;146;53.448;10.228;2023-08-17T02:28:36;18.60;1.00
318;DHT22;146;53.448;10.228;2023-08-17T02:31:05;18.50;1.00
318;DHT22;146;53.448;10.228;2023-08-17T02:33:32;18.50;1.00
318;DHT22;146;53.448;10.228;2023-08-17T02:36:03;18.60;1.00
318;DHT22;146;53.448;10.228;2023-08-17T02:38:33;18.60;1.00
318;DHT22;146;53.448;10.228;2023-08-17T02:41:02;18.70;1.00
318;DHT22;146;53.448;10.228;2023-08-17T02:43:31;18.60;1.00
318;DHT22;146;53.448;10.228;2023-08-17T02:46:00;18.50;1.00
318;DHT22;146;53.448;10.228;2023-08-17T02:48:30;18.50;1.00
318;DHT22;146;53.448;10.228;2023-08-17T02:50:57;18.50;1.00
318;DHT22;146;53.448;10.228;2023-08-17T02:53:29;18.50;1.00
318;DHT22;146;53.448;10.228;2023-08-17T02:55:56;18.50;1.00
318;DHT22;146;53.448;10.228;2023-08-17T02:58:25;18.40;1.00
318;DHT22;146;53.448;10.228;2023-08-17T03:00:53;18.50;1.00
318;DHT22;146;53.448;10.228;2023-08-17T03:03:20;18.50;1.00
318;DHT22;146;53.448;10.228;2023-08-17T03:05:46;18.40;1.00
318;DHT22;146;53.448;10.228;2023-08-17T03:08:13;18.50;1.00
318;DHT22;146;53.448;10.228;2023-08-17T03:10:40;18.50;1.00
318;DHT22;146;53.448;10.228;2023-08-17T03:13:18;18.50;1.00
318;DHT22;146;53.448;10.228;2023-08-17T03:15:45;18.60;1.00
318;DHT22;146;53.448;10.228;2023-08-17T03:18:22;18.60;1.00
318;DHT22;146;53.448;10.228;2023-08-17T03:20:52;18.50;1.00
318;DHT22;146;53.448;10.228;2023-08-17T03:23:21;18.30;1.00
318;DHT22;146;53.448;10.228;2023-08-17T03:25:52;18.30;1.00
318;DHT22;146;53.448;10.228;2023-08-17T03:28:18;18.40;1.00
318;DHT22;146;53.448;10.228;2023-08-17T03:30:48;18.30;1.00
318;DHT22;146;53.448;10.228;2023-08-17T03:33:15;18.30;1.00
318;DHT22;146;53.448;10.228;2023-08-17T03:35:55;18.30;1.00
318;DHT22;146;53.448;10.228;2023-08-17T03:38:22;18.30;1.00
318;DHT22;146;53.448;10.228;2023-08-17T03:40:51;18.30;1.00
318;DHT22;146;53.448;10.228;2023-08-17T03:43:23;18.40;1.00
318;DHT22;146;53.448;10.228;2023-08-17T03:46:03;18.50;1.00
318;DHT22;146;53.448;10.228;2023-08-17T03:48:30;18.60;1.00
318;DHT22;146;53.448;10.228;2023-08-17T03:51:01;18.70;1.00
318;DHT22;146;53.448;10.228;2023-08-17T03:53:28;18.80;1.00
318;DHT22;146;53.448;10.228;2023-08-17T03:55:55;18.80;1.00
318;DHT22;146;53.448;10.228;2023-08-17T03:58:22;18.90;1.00
318;DHT22;146;53.448;10.228;2023-08-17T04:00:49;19.00;1.00
318;DHT22;146;53.448;10.228;2023-08-17T04:03:19;19.00;1.00
318;DHT22;146;53.448;10.228;2023-08-17T04:05:49;18.90;1.00
318;DHT22;146;53.448;10.228;2023-08-17T04:08:26;19.00;1.00
318;DHT22;146;53.448;10.228;2023-08-17T04:10:59;19.00;1.00
318;DHT22;146;53.448;10.228;2023-08-17T04:13:29;18.90;1.00
318;DHT22;146;53.448;10.228;2023-08-17T04:15:58;18.90;1.00
318;DHT22;146;53.448;10.228;2023-08-17T04:18:28;18.80;1.00
318;DHT22;146;53.448;10.228;2023-08-17T04:20:55;18.80;1.00
318;DHT22;146;53.448;10.228;2023-08-17T04:23:29;18.70;1.00
318;DHT22;146;53.448;10.228;2023-08-17T04:26:05;18.70;1.00
318;DHT22;146;53.448;10.228;2023-08-17T04:28:35;18.70;1.00
318;DHT22;146;53.448;10.228;2023-08-17T04:31:01;18.70;1.00
318;DHT22;146;53.448;10.228;2023-08-17T04:33:31;18.80;1.00
318;DHT22;146;53.448;10.228;2023-08-17T04:36:04;18.70;1.00
318;DHT22;146;53.448;10.228;2023-08-17T04:38:32;18.60;1.00
318;DHT22;146;53.448;10.228;2023-08-17T04:40:58;18.60;1.00
318;DHT22;146;53.448;10.228;2023-08-17T04:43:28;18.60;1.00
318;DHT22;146;53.448;10.228;2023-08-17T04:46:01;18.50;1.00
318;DHT22;146;53.448;10.228;2023-08-17T04:48:43;18.50;1.00
318;DHT22;146;53.448;10.228;2023-08-17T04:51:12;18.40;1.00
318;DHT22;146;53.448;10.228;2023-08-17T04:53:44;18.50;1.00
318;DHT22;146;53.448;10.228;2023-08-17T04:56:17;18.60;1.00
318;DHT22;146;53.448;10.228;2023-08-17T04:58:44;18.60;1.00
318;DHT22;146;53.448;10.228;2023-08-17T05:01:13;18.70;1.00
318;DHT22;146;53.448;10.228;2023-08-17T05:03:43;18.70;1.00
318;DHT22;146;53.448;10.228;2023-08-17T05:06:10;18.80;1.00
318;DHT22;146;53.448;10.228;2023-08-17T05:08:44;18.80;1.00
318;DHT22;146;53.448;10.228;2023-08-17T05:11:17;18.70;1.00
318;DHT22;146;53.448;10.228;2023-08-17T05:13:47;18.70;1.00
318;DHT22;146;53.448;10.228;2023-08-17T05:16:22;18.60;1.00
318;DHT22;146;53.448;10.228;2023-08-17T05:18:58;18.50;1.00
318;DHT22;146;53.448;10.228;2023-08-17T05:21:25;18.50;1.00
318;DHT22;146;53.448;10.228;2023-08-17T05:23:53;18.50;1.00
318;DHT22;146;53.448;10.228;2023-08-17T05:26:20;18.40;1.00
318;DHT22;146;53.448;10.228;2023-08-17T05:29:02;18.40;1.00
318;DHT22;146;53.448;10.228;2023-08-17T05:31:31;18.40;1.00
318;DHT22;146;53.448;10.228;2023-08-17T05:34:01;18.50;1.00
318;DHT22;146;53.448;10.228;2023-08-17T05:36:28;18.50;1.00
318;DHT22;146;53.448;10.228;2023-08-17T05:39:04;18.50;1.00
318;DHT22;146;53.448;10.228;2023-08-17T05:41:30;18.50;1.00
318;DHT22;146;53.448;10.228;2023-08-17T05:43:58;18.50;1.00
318;DHT22;146;53.448;10.228;2023-08-17T05:46:24;18.50;1.00
318;DHT22;146;53.448;10.228;2023-08-17T05:48:51;18.50;1.00
318;DHT22;146;53.448;10.228;2023-08-17T05:51:25;18.50;1.00
318;DHT22;146;53.448;10.228;2023-08-17T05:53:52;18.40;1.00
318;DHT22;146;53.448;10.228;2023-08-17T05:56:26;18.40;1.00
318;DHT22;146;53.448;10.228;2023-08-17T05:58:56;18.30;1.00
318;DHT22;146;53.448;10.228;2023-08-17T06:01:29;18.20;1.00
318;DHT22;146;53.448;10.228;2023-08-17T06:03:59;18.20;1.00
318;DHT22;146;53.448;10.228;2023-08-17T06:06:29;18.20;1.00
318;DHT22;146;53.448;10.228;2023-08-17T06:08:56;18.20;1.00
318;DHT22;146;53.448;10.228;2023-08-17T06:11:43;18.20;1.00
318;DHT22;146;53.448;10.228;2023-08-17T06:14:10;18.20;1.00
318;DHT22;146;53.448;10.228;2023-08-17T06:16:37;18.20;1.00
318;DHT22;146;53.448;10.228;2023-08-17T06:19:13;18.20;1.00
318;DHT22;146;53.448;10.228;2023-08-17T06:21:46;18.10;1.00
318;DHT22;146;53.448;10.228;2023-08-17T06:24:13;18.10;1.00
318;DHT22;146;53.448;10.228;2023-08-17T06:26:39;18.10;1.00
318;DHT22;146;53.448;10.228;2023-08-17T06:29:17;18.00;1.00
318;DHT22;146;53.448;10.228;2023-08-17T06:31:44;18.00;1.00
318;DHT22;146;53.448;10.228;2023-08-17T06:34:11;18.00;1.00
318;DHT22;146;53.448;10.228;2023-08-17T06:36:38;18.00;1.00
318;DHT22;146;53.448;10.228;2023-08-17T06:39:05;17.80;1.00
318;DHT22;146;53.448;10.228;2023-08-17T06:41:31;17.70;1.00
318;DHT22;146;53.448;10.228;2023-08-17T06:43:58;17.70;1.00
318;DHT22;146;53.448;10.228;2023-08-17T06:46:36;17.50;1.00
318;DHT22;146;53.448;10.228;2023-08-17T06:49:03;17.50;1.00
318;DHT22;146;53.448;10.228;2023-08-17T06:51:39;17.40;1.00
318;DHT22;146;53.448;10.228;2023-08-17T06:54:09;17.40;1.00
318;DHT22;146;53.448;10.228;2023-08-17T06:56:35;17.40;1.00
318;DHT22;146;53.448;10.228;2023-08-17T06:59:02;17.30;1.00
318;DHT22;146;53.448;10.228;2023-08-17T07:01:32;17.20;1.00
318;DHT22;146;53.448;10.228;2023-08-17T07:04:00;17.10;1.00
318;DHT22;146;53.448;10.228;2023-08-17T07:06:27;17.10;1.00
318;DHT22;146;53.448;10.228;2023-08-17T07:08:54;17.10;1.00
318;DHT22;146;53.448;10.228;2023-08-17T07:11:22;16.90;1.00
318;DHT22;146;53.448;10.228;2023-08-17T07:13:49;16.90;1.00
318;DHT22;146;53.448;10.228;2023-08-17T07:16:16;17.00;1.00
318;DHT22;146;53.448;10.228;2023-08-17T07:18:43;17.10;1.00
318;DHT22;146;53.448;10.228;2023-08-17T07:21:14;17.20;1.00
318;DHT22;146;53.448;10.228;2023-08-17T07:23:45;17.20;1.00
318;DHT22;146;53.448;10.228;2023-08-17T07:26:12;17.30;1.00
318;DHT22;146;53.448;10.228;2023-08-17T07:28:39;17.30;1.00
318;DHT22;146;53.448;10.228;2023-08-17T07:31:21;17.30;1.00
318;DHT22;146;53.448;10.228;2023-08-17T07:33:48;17.30;1.00
318;DHT22;146;53.448;10.228;2023-08-17T07:36:16;17.30;1.00
318;DHT22;146;53.448;10.228;2023-08-17T07:38:43;17.30;1.00
318;DHT22;146;53.448;10.228;2023-08-17T07:41:19;17.30;1.00
318;DHT22;146;53.448;10.228;2023-08-17T07:43:49;17.30;1.00
318;DHT22;146;53.448;10.228;2023-08-17T07:46:15;17.40;1.00
318;DHT22;146;53.448;10.228;2023-08-17T07:49:01;17.50;1.00
318;DHT22;146;53.448;10.228;2023-08-17T07:51:32;17.40;1.00
318;DHT22;146;53.448;10.228;2023-08-17T07:54:08;17.40;1.00
318;DHT22;146;53.448;10.228;2023-08-17T07:56:35;17.30;1.00
318;DHT22;146;53.448;10.228;2023-08-17T07:59:02;17.20;1.00
318;DHT22;146;53.448;10.228;2023-08-17T08:01:31;17.40;1.00
318;DHT22;146;53.448;10.228;2023-08-17T08:04:05;17.40;1.00
318;DHT22;146;53.448;10.228;2023-08-17T08:06:33;17.50;1.00
318;DHT22;146;53.448;10.228;2023-08-17T08:09:00;17.50;1.00
318;DHT22;146;53.448;10.228;2023-08-17T08:11:30;17.40;1.00
318;DHT22;146;53.448;10.228;2023-08-17T08:13:57;17.40;1.00
318;DHT22;146;53.448;10.228;2023-08-17T08:16:24;17.30;1.00
318;DHT22;146;53.448;10.228;2023-08-17T08:19:11;17.40;1.00
318;DHT22;146;53.448;10.228;2023-08-17T08:21:42;17.40;1.00
318;DHT22;146;53.448;10.228;2023-08-17T08:24:19;17.40;1.00
318;DHT22;146;53.448;10.228;2023-08-17T08:26:46;17.50;1.00
318;DHT22;146;53.448;10.228;2023-08-17T08:29:19;17.50;1.00
318;DHT22;146;53.448;10.228;2023-08-17T08:31:46;17.40;1.00
318;DHT22;146;53.448;10.228;2023-08-17T08:34:12;17.40;1.00
318;DHT22;146;53.448;10.228;2023-08-17T08:36:41;17.50;1.00
318;DHT22;146;53.448;10.228;2023-08-17T08:39:10;17.40;1.00
318;DHT22;146;53.448;10.228;2023-08-17T08:41:42;17.30;1.00
318;DHT22;146;53.448;10.228;2023-08-17T08:44:12;17.20;1.00
318;DHT22;146;53.448;10.228;2023-08-17T08:46:40;17.20;1.00
318;DHT22;146;53.448;10.228;2023-08-17T08:49:09;17.10;1.00
318;DHT22;146;53.448;10.228;2023-08-17T08:51:44;17.10;1.00
318;DHT22;146;53.448;10.228;2023-08-17T08:54:13;17.00;1.00
318;DHT22;146;53.448;10.228;2023-08-17T08:56:45;17.00;1.00
318;DHT22;146;53.448;10.228;2023-08-17T08:59:12;16.90;1.00
318;DHT22;146;53.448;10.228;2023-08-17T09:01:40;17.00;1.00
318;DHT22;146;53.448;10.228;2023-08-17T09:04:13;17.00;1.00
318;DHT22;146;53.448;10.228;2023-08-17T09:06:41;16.90;1.00
318;DHT22;146;53.448;10.228;2023-08-17T09:09:21;16.80;1.00
318;DHT22;146;53.448;10.228;2023-08-17T09:11:52;16.60;1.00
318;DHT22;146;53.448;10.228;2023-08-17T09:14:22;16.50;1.00
318;DHT22;146;53.448;10.228;2023-08-17T09:16:52;16.50;1.00
318;DHT22;146;53.448;10.228;2023-08-17T09:19:21;16.30;1.00
318;DHT22;146;53.448;10.228;2023-08-17T09:21:51;16.10;1.00
318;DHT22;146;53.448;10.228;2023-08-17T09:24:36;16.00;1.00
318;DHT22;146;53.448;10.228;2023-08-17T09:27:03;16.10;1.40
318;DHT22;146;53.448;10.228;2023-08-17T09:29:31;16.00;2.20
318;DHT22;146;53.448;10.228;2023-08-17T09:32:04;16.00;2.80
318;DHT22;146;53.448;10.228;2023-08-17T09:34:32;15.80;2.90
318;DHT22;146;53.448;10.228;2023-08-17T09:37:12;15.90;3.70
318;DHT22;146;53.448;10.228;2023-08-17T09:39:46;15.90;4.40
318;DHT22;146;53.448;10.228;2023-08-17T09:42:14;15.90;4.70
318;DHT22;146;53.448;10.228;2023-08-17T09:44:42;15.90;5.00
318;DHT22;146;53.448;10.228;2023-08-17T09:47:25;15.90;4.90
318;DHT22;146;53.448;10.228;2023-08-17T09:49:53;16.00;5.10
318;DHT22;146;53.448;10.228;2023-08-17T09:52:20;16.00;5.20
318;DHT22;146;53.448;10.228;2023-08-17T09:54:49;16.00;5.20
318;DHT22;146;53.448;10.228;2023-08-17T09:57:16;16.00;5.30
318;DHT22;146;53.448;10.228;2023-08-17T09:59:46;16.00;5.20
318;DHT22;146;53.448;10.228;2023-08-17T10:02:23;15.90;5.00
318;DHT22;146;53.448;10.228;2023-08-17T10:04:56;16.00;4.90
318;DHT22;146;53.448;10.228;2023-08-17T10:07:29;15.80;4.30
318;DHT22;146;53.448;10.228;2023-08-17T10:10:03;15.70;3.60
318;DHT22;146;53.448;10.228;2023-08-17T10:12:34;15.60;3.40
318;DHT22;146;53.448;10.228;2023-08-17T10:15:07;15.60;3.50
318;DHT22;146;53.448;10.228;2023-08-17T10:17:38;15.50;3.00
318;DHT22;146;53.448;10.228;2023-08-17T10:20:07;15.50;3.20
318;DHT22;146;53.448;10.228;2023-08-17T10:22:39;15.50;3.10
318;DHT22;146;53.448;10.228;2023-08-17T10:25:10;15.40;3.10
318;DHT22;146;53.448;10.228;2023-08-17T10:27:39;15.40;3.50
318;DHT22;146;53.448;10.228;2023-08-17T10:30:08;15.50;4.10
318;DHT22;146;53.448;10.228;2023-08-17T10:32:36;15.50;4.30
318;DHT22;146;53.448;10.228;2023-08-17T10:35:04;15.50;4.60
318;DHT22;146;53.448;10.228;2023-08-17T10:37:32;15.60;5.00
318;DHT22;146;53.448;10.228;2023-08-17T10:39:59;15.70;5.40
318;DHT22;146;53.448;10.228;2023-08-17T10:42:34;15.80;5.40
318;DHT22;146;53.448;10.228;2023-08-17T10:45:25;15.80;5.40
318;DHT22;146;53.448;10.228;2023-08-17T10:51:01;16.00;5.20
318;DHT22;146;53.448;10.228;2023-08-17T10:53:34;16.00;5.10
318;DHT22;146;53.448;10.228;2023-08-17T10:56:07;16.00;4.90
318;DHT22;146;53.448;10.228;2023-08-17T10:58:35;16.00;4.50
318;DHT22;146;53.448;10.228;2023-08-17T11:01:02;15.90;3.80
318;DHT22;146;53.448;10.228;2023-08-17T11:03:29;15.90;3.40
318;DHT22;146;53.448;10.228;2023-08-17T11:05:56;15.80;2.70
318;DHT22;146;53.448;10.228;2023-08-17T11:08:28;15.80;3.10
318;DHT22;146;53.448;10.228;2023-08-17T11:10:59;15.80;3.20
318;DHT22;146;53.448;10.228;2023-08-17T11:13:32;15.80;3.10
318;DHT22;146;53.448;10.228;2023-08-17T11:16:04;15.70;3.20
318;DHT22;146;53.448;10.228;2023-08-17T11:18:32;15.80;3.50
318;DHT22;146;53.448;10.228;2023-08-17T11:21:00;15.90;3.90
318;DHT22;146;53.448;10.228;2023-08-17T11:23:40;15.90;3.90
318;DHT22;146;53.448;10.228;2023-08-17T11:26:07;15.90;4.10
318;DHT22;146;53.448;10.228;2023-08-17T11:28:37;16.00;4.40
318;DHT22;146;53.448;10.228;2023-08-17T11:31:09;16.20;5.00
318;DHT22;146;53.448;10.228;2023-08-17T11:33:37;16.40;5.40
318;DHT22;146;53.448;10.228;2023-08-17T11:36:09;16.50;5.40
318;DHT22;146;53.448;10.228;2023-08-17T11:38:38;16.50;5.00
318;DHT22;146;53.448;10.228;2023-08-17T11:41:08;16.70;5.10
318;DHT22;146;53.448;10.228;2023-08-17T11:43:42;16.80;5.00
318;DHT22;146;53.448;10.228;2023-08-17T11:46:11;16.90;4.90
318;DHT22;146;53.448;10.228;2023-08-17T11:48:41;17.00;4.70
318;DHT22;146;53.448;10.228;2023-08-17T11:51:40;17.00;4.30
318;DHT22;146;53.448;10.228;2023-08-17T11:54:10;16.90;3.00
318;DHT22;146;53.448;10.228;2023-08-17T11:56:39;17.00;2.90
318;DHT22;146;53.448;10.228;2023-08-17T11:59:10;16.80;2.20
318;DHT22;146;53.448;10.228;2023-08-17T12:01:43;16.60;1.30
318;DHT22;146;53.448;10.228;2023-08-17T12:04:13;16.70;2.20
318;DHT22;146;53.448;10.228;2023-08-17T12:06:43;16.80;2.80
318;DHT22;146;53.448;10.228;2023-08-17T12:09:10;17.00;3.20
318;DHT22;146;53.448;10.228;2023-08-17T12:11:47;17.00;3.10
318;DHT22;146;53.448;10.228;2023-08-17T12:14:14;17.00;2.40
318;DHT22;146;53.448;10.228;2023-08-17T12:16:49;16.90;2.80
318;DHT22;146;53.448;10.228;2023-08-17T12:19:24;16.90;3.40
318;DHT22;146;53.448;10.228;2023-08-17T12:22:03;16.90;3.80
318;DHT22;146;53.448;10.228;2023-08-17T12:24:30;16.80;3.50
318;DHT22;146;53.448;10.228;2023-08-17T12:27:03;16.70;3.70
318;DHT22;146;53.448;10.228;2023-08-17T12:29:31;16.60;4.00
318;DHT22;146;53.448;10.228;2023-08-17T12:32:02;16.60;4.30
318;DHT22;146;53.448;10.228;2023-08-17T12:34:29;16.50;4.40
318;DHT22;146;53.448;10.228;2023-08-17T12:37:02;16.50;4.70
318;DHT22;146;53.448;10.228;2023-08-17T12:39:29;16.60;5.10
318;DHT22;146;53.448;10.228;2023-08-17T12:42:04;16.60;5.60
318;DHT22;146;53.448;10.228;2023-08-17T12:44:31;16.80;6.30
318;DHT22;146;53.448;10.228;2023-08-17T12:46:58;17.00;6.50
318;DHT22;146;53.448;10.228;2023-08-17T12:49:31;17.00;6.30
318;DHT22;146;53.448;10.228;2023-08-17T12:52:05;17.20;6.80
318;DHT22;146;53.448;10.228;2023-08-17T12:54:32;17.30;7.00
318;DHT22;146;53.448;10.228;2023-08-17T12:56:59;17.40;6.70
318;DHT22;146;53.448;10.228;2023-08-17T12:59:29;17.60;6.80
318;DHT22;146;53.448;10.228;2023-08-17T13:02:02;17.60;6.40
318;DHT22;146;53.448;10.228;2023-08-17T13:04:29;17.70;6.10
318;DHT22;146;53.448;10.228;2023-08-17T13:07:03;17.80;6.10
318;DHT22;146;53.448;10.228;2023-08-17T13:09:32;18.10;6.40
318;DHT22;146;53.448;10.228;2023-08-17T13:12:05;18.20;6.50
318;DHT22;146;53.448;10.228;2023-08-17T13:14:41;18.30;6.40
318;DHT22;146;53.448;10.228;2023-08-17T13:17:08;18.50;6.50
318;DHT22;146;53.448;10.228;2023-08-17T13:19:41;18.60;6.10
318;DHT22;146;53.448;10.228;2023-08-17T13:22:09;18.80;6.00
318;DHT22;146;53.448;10.228;2023-08-17T13:24:36;19.00;5.40
318;DHT22;146;53.448;10.228;2023-08-17T13:27:12;19.00;4.50
318;DHT22;146;53.448;10.228;2023-08-17T13:29:39;19.10;4.00
318;DHT22;146;53.448;10.228;2023-08-17T13:32:08;19.00;2.60
318;DHT22;146;53.448;10.228;2023-08-17T13:34:35;19.00;1.00
318;DHT22;146;53.448;10.228;2023-08-17T13:37:02;18.90;1.00
318;DHT22;146;53.448;10.228;2023-08-17T13:39:38;18.70;1.00
318;DHT22;146;53.448;10.228;2023-08-17T13:42:13;18.60;1.00
318;DHT22;146;53.448;10.228;2023-08-17T13:44:46;18.40;1.00
318;DHT22;146;53.448;10.228;2023-08-17T13:47:13;18.10;1.00
318;DHT22;146;53.448;10.228;2023-08-17T13:49:40;18.10;1.00
318;DHT22;146;53.448;10.228;2023-08-17T13:52:23;18.20;1.00
318;DHT22;146;53.448;10.228;2023-08-17T13:54:58;18.20;1.00
318;DHT22;146;53.448;10.228;2023-08-17T13:57:25;18.20;1.00
318;DHT22;146;53.448;10.228;2023-08-17T13:59:59;18.10;1.00
318;DHT22;146;53.448;10.228;2023-08-17T14:02:26;17.90;1.00
318;DHT22;146;53.448;10.228;2023-08-17T14:04:53;17.80;1.00
318;DHT22;146;53.448;10.228;2023-08-17T14:07:19;17.80;1.00
318;DHT22;146;53.448;10.228;2023-08-17T14:09:48;17.70;1.00
318;DHT22;146;53.448;10.228;2023-08-17T14:12:20;17.60;1.00
318;DHT22;146;53.448;10.228;2023-08-17T14:15:10;17.60;1.00
318;DHT22;146;53.448;10.228;2023-08-17T14:17:43;17.70;1.00
318;DHT22;146;53.448;10.228;2023-08-17T14:20:20;17.80;1.00
318;DHT22;146;53.448;10.228;2023-08-17T14:22:50;17.70;1.00
318;DHT22;146;53.448;10.228;2023-08-17T14:25:19;17.70;1.00
318;DHT22;146;53.448;10.228;2023-08-17T14:27:47;17.80;1.00
318;DHT22;146;53.448;10.228;2023-08-17T14:30:14;17.80;1.00
318;DHT22;146;53.448;10.228;2023-08-17T14:32:46;17.90;1.00
318;DHT22;146;53.448;10.228;2023-08-17T14:35:13;18.00;1.00
318;DHT22;146;53.448;10.228;2023-08-17T14:37:39;17.90;1.00
318;DHT22;146;53.448;10.228;2023-08-17T14:40:08;17.90;1.00
318;DHT22;146;53.448;10.228;2023-08-17T14:42:35;17.80;1.00
318;DHT22;146;53.448;10.228;2023-08-17T14:45:04;17.80;1.00
318;DHT22;146;53.448;10.228;2023-08-17T14:47:37;17.70;1.00
318;DHT22;146;53.448;10.228;2023-08-17T14:50:09;17.70;1.00
318;DHT22;146;53.448;10.228;2023-08-17T14:52:39;17.70;1.00
318;DHT22;146;53.448;10.228;2023-08-17T14:55:09;17.50;1.00
318;DHT22;146;53.448;10.228;2023-08-17T14:57:39;17.50;1.00
318;DHT22;146;53.448;10.228;2023-08-17T15:00:13;17.50;1.00
318;DHT22;146;53.448;10.228;2023-08-17T15:02:41;17.50;1.00
318;DHT22;146;53.448;10.228;2023-08-17T15:05:10;17.40;1.00
318;DHT22;146;53.448;10.228;2023-08-17T15:07:41;17.50;1.00
318;DHT22;146;53.448;10.228;2023-08-17T15:10:11;17.60;1.00
318;DHT22;146;53.448;10.228;2023-08-17T15:12:41;17.60;1.00
318;DHT22;146;53.448;10.228;2023-08-17T15:15:09;17.50;1.00
318;DHT22;146;53.448;10.228;2023-08-17T15:17:39;17.50;1.00
318;DHT22;146;53.448;10.228;2023-08-17T15:20:10;17.50;1.00
318;DHT22;146;53.448;10.228;2023-08-17T15:22:40;17.60;1.00
318;DHT22;146;53.448;10.228;2023-08-17T15:25:09;17.50;1.00
318;DHT22;146;53.448;10.228;2023-08-17T15:27:47;17.50;1.00
318;DHT22;146;53.448;10.228;2023-08-17T15:30:16;17.30;1.00
318;DHT22;146;53.448;10.228;2023-08-17T15:32:45;17.40;1.00
318;DHT22;146;53.448;10.228;2023-08-17T15:35:15;17.60;1.00
318;DHT22;146;53.448;10.228;2023-08-17T15:37:48;17.60;1.00
318;DHT22;146;53.448;10.228;2023-08-17T15:40:17;17.60;1.00
318;DHT22;146;53.448;10.228;2023-08-17T15:42:48;17.50;1.00
318;DHT22;146;53.448;10.228;2023-08-17T15:45:24;17.50;1.00
318;DHT22;146;53.448;10.228;2023-08-17T15:47:54;17.60;1.00
318;DHT22;146;53.448;10.228;2023-08-17T15:50:29;17.60;1.00
318;DHT22;146;53.448;10.228;2023-08-17T15:52:59;17.60;1.00
318;DHT22;146;53.448;10.228;2023-08-17T15:55:31;17.70;1.00
318;DHT22;146;53.448;10.228;2023-08-17T15:58:04;17.60;1.00
318;DHT22;146;53.448;10.228;2023-08-17T16:00:48;17.60;1.00
318;DHT22;146;53.448;10.228;2023-08-17T16:03:21;17.60;1.00
318;DHT22;146;53.448;10.228;2023-08-17T16:05:48;17.60;1.00
318;DHT22;146;53.448;10.228;2023-08-17T16:08:14;17.60;1.00
318;DHT22;146;53.448;10.228;2023-08-17T16:10:41;17.70;1.00
318;DHT22;146;53.448;10.228;2023-08-17T16:13:14;17.80;1.00
318;DHT22;146;53.448;10.228;2023-08-17T16:15:46;17.80;1.00
318;DHT22;146;53.448;10.228;2023-08-17T16:18:14;17.70;1.00
318;DHT22;146;53.448;10.228;2023-08-17T16:20:41;17.70;1.00
318;DHT22;146;53.448;10.228;2023-08-17T16:23:10;17.60;1.00
318;DHT22;146;53.448;10.228;2023-08-17T16:25:46;17.60;1.00
318;DHT22;146;53.448;10.228;2023-08-17T16:28:16;17.60;1.00
318;DHT22;146;53.448;10.228;2023-08-17T16:30:46;17.50;1.00
318;DHT22;146;53.448;10.228;2023-08-17T16:33:14;17.50;1.00
318;DHT22;146;53.448;10.228;2023-08-17T16:35:50;17.50;1.00
318;DHT22;146;53.448;10.228;2023-08-17T16:38:24;17.50;1.00
318;DHT22;146;53.448;10.228;2023-08-17T16:40:51;17.50;1.00
318;DHT22;146;53.448;10.228;2023-08-17T16:43:24;17.60;1.00
318;DHT22;146;53.448;10.228;2023-08-17T16:45:50;17.60;1.00
318;DHT22;146;53.448;10.228;2023-08-17T16:48:20;17.60;1.00
318;DHT22;146;53.448;10.228;2023-08-17T16:50:59;17.70;1.00
318;DHT22;146;53.448;10.228;2023-08-17T16:53:26;17.70;1.00
318;DHT22;146;53.448;10.228;2023-08-17T16:55:55;17.60;1.00
318;DHT22;146;53.448;10.228;2023-08-17T16:58:28;17.70;1.00
318;DHT22;146;53.448;10.228;2023-08-17T17:00:58;17.80;1.00